sensor_id;sensor_type;location;lat;lon;timestamp;P1;durP1;ratioP1;P2;durP2;ratioP2
73938;SDS011;62291;47.554;8.504;2024-02-14T00:02:20;10.50;;;6.03;;
73938;SDS011;62291;47.554;8.504;2024-02-14T00:04:46;8.82;;;5.70;;
73938;SDS011;62291;47.554;8.504;2024-02-14T00:07:13;13.77;;;6.18;;
73938;SDS011;62291;47.554;8.504;2024-02-14T00:09:39;9.93;;;5.93;;
73938;SDS011;62291;47.554;8.504;2024-02-14T00:12:05;14.98;;;6.57;;
73938;SDS011;62291;47.554;8.504;2024-02-14T00:14:31;12.88;;;5.75;;
73938;SDS011;62291;47.554;8.504;2024-02-14T00:16:57;7.88;;;5.72;;
73938;SDS011;62291;47.554;8.504;2024-02-14T00:19:24;11.18;;;5.85;;
73938;SDS011;62291;47.554;8.504;2024-02-14T00:21:50;8.85;;;5.80;;
73938;SDS011;62291;47.554;8.504;2024-02-14T00:24:16;9.18;;;5.78;;
73938;SDS011;62291;47.554;8.504;2024-02-14T00:26:44;11.50;;;6.43;;
73938;SDS011;62291;47.554;8.504;2024-02-14T00:29:11;10.48;;;6.50;;
73938;SDS011;62291;47.554;8.504;2024-02-14T00:31:37;9.27;;;5.85;;
73938;SDS011;62291;47.554;8.504;2024-02-14T00:34:02;12.73;;;6.38;;
73938;SDS011;62291;47.554;8.504;2024-02-14T00:36:29;10.32;;;5.63;;
73938;SDS011;62291;47.554;8.504;2024-02-14T00:38:55;9.80;;;5.47;;
73938;SDS011;62291;47.554;8.504;2024-02-14T00:41:21;10.93;;;5.90;;
73938;SDS011;62291;47.554;8.504;2024-02-14T00:43:46;12.15;;;5.38;;
73938;SDS011;62291;47.554;8.504;2024-02-14T00:46:15;12.45;;;5.50;;
73938;SDS011;62291;47.554;8.504;2024-02-14T00:48:42;13.20;;;5.20;;
73938;SDS011;62291;47.554;8.504;2024-02-14T00:51:09;10.70;;;5.03;;
73938;SDS011;62291;47.554;8.504;2024-02-14T00:53:35;14.60;;;5.40;;
73938;SDS011;62291;47.554;8.504;2024-02-14T00:56:01;9.98;;;4.90;;
73938;SDS011;62291;47.554;8.504;2024-02-14T00:58:27;8.93;;;4.93;;
73938;SDS011;62291;47.554;8.504;2024-02-14T01:00:53;11.30;;;4.95;;
73938;SDS011;62291;47.554;8.504;2024-02-14T01:03:19;9.82;;;5.15;;
73938;SDS011;62291;47.554;8.504;2024-02-14T01:05:44;7.72;;;4.40;;
73938;SDS011;62291;47.554;8.504;2024-02-14T01:08:10;8.60;;;4.75;;
73938;SDS011;62291;47.554;8.504;2024-02-14T01:10:36;10.27;;;5.07;;
73938;SDS011;62291;47.554;8.504;2024-02-14T01:13:01;8.75;;;5.18;;
73938;SDS011;62291;47.554;8.504;2024-02-14T01:15:27;10.27;;;5.05;;
73938;SDS011;62291;47.554;8.504;2024-02-14T01:17:53;6.90;;;4.68;;
73938;SDS011;62291;47.554;8.504;2024-02-14T01:20:19;8.48;;;5.18;;
73938;SDS011;62291;47.554;8.504;2024-02-14T01:22:45;9.52;;;5.10;;
73938;SDS011;62291;47.554;8.504;2024-02-14T01:25:11;9.48;;;4.85;;
73938;SDS011;62291;47.554;8.504;2024-02-14T01:27:37;9.85;;;5.30;;
73938;SDS011;62291;47.554;8.504;2024-02-14T01:30:04;6.85;;;4.47;;
73938;SDS011;62291;47.554;8.504;2024-02-14T01:32:30;7.88;;;4.45;;
73938;SDS011;62291;47.554;8.504;2024-02-14T01:34:56;9.00;;;4.30;;
73938;SDS011;62291;47.554;8.504;2024-02-14T01:37:22;9.35;;;3.90;;
73938;SDS011;62291;47.554;8.504;2024-02-14T01:39:48;9.25;;;4.35;;
73938;SDS011;62291;47.554;8.504;2024-02-14T01:42:13;8.10;;;4.18;;
73938;SDS011;62291;47.554;8.504;2024-02-14T01:44:39;8.15;;;4.63;;
73938;SDS011;62291;47.554;8.504;2024-02-14T01:47:05;8.48;;;4.80;;
73938;SDS011;62291;47.554;8.504;2024-02-14T01:49:32;9.20;;;4.15;;
73938;SDS011;62291;47.554;8.504;2024-02-14T01:52:00;7.18;;;4.10;;
73938;SDS011;62291;47.554;8.504;2024-02-14T01:54:28;9.82;;;3.97;;
73938;SDS011;62291;47.554;8.504;2024-02-14T01:56:57;9.45;;;4.22;;
73938;SDS011;62291;47.554;8.504;2024-02-14T01:59:24;7.05;;;4.07;;
73938;SDS011;62291;47.554;8.504;2024-02-14T02:01:50;7.85;;;3.92;;
73938;SDS011;62291;47.554;8.504;2024-02-14T02:04:17;9.65;;;4.68;;
73938;SDS011;62291;47.554;8.504;2024-02-14T02:06:43;6.25;;;3.65;;
73938;SDS011;62291;47.554;8.504;2024-02-14T02:09:09;7.80;;;3.83;;
73938;SDS011;62291;47.554;8.504;2024-02-14T02:11:50;8.80;;;4.00;;
73938;SDS011;62291;47.554;8.504;2024-02-14T02:14:21;6.90;;;4.05;;
73938;SDS011;62291;47.554;8.504;2024-02-14T02:16:47;7.72;;;4.10;;
73938;SDS011;62291;47.554;8.504;2024-02-14T02:19:14;7.50;;;3.50;;
73938;SDS011;62291;47.554;8.504;2024-02-14T02:21:41;7.30;;;3.78;;
73938;SDS011;62291;47.554;8.504;2024-02-14T02:24:11;4.07;;;2.77;;
73938;SDS011;62291;47.554;8.504;2024-02-14T02:26:37;9.75;;;3.95;;
73938;SDS011;62291;47.554;8.504;2024-02-14T02:29:02;7.25;;;3.60;;
73938;SDS011;62291;47.554;8.504;2024-02-14T02:31:30;7.53;;;3.85;;
73938;SDS011;62291;47.554;8.504;2024-02-14T02:33:56;7.97;;;4.18;;
73938;SDS011;62291;47.554;8.504;2024-02-14T02:36:22;9.45;;;4.00;;
73938;SDS011;62291;47.554;8.504;2024-02-14T02:38:49;6.57;;;4.22;;
73938;SDS011;62291;47.554;8.504;2024-02-14T02:41:15;8.25;;;4.38;;
73938;SDS011;62291;47.554;8.504;2024-02-14T02:43:41;7.82;;;4.15;;
73938;SDS011;62291;47.554;8.504;2024-02-14T02:46:08;8.35;;;4.40;;
73938;SDS011;62291;47.554;8.504;2024-02-14T02:48:34;6.82;;;4.05;;
73938;SDS011;62291;47.554;8.504;2024-02-14T02:51:01;9.35;;;4.47;;
73938;SDS011;62291;47.554;8.504;2024-02-14T02:53:27;8.77;;;4.30;;
73938;SDS011;62291;47.554;8.504;2024-02-14T02:55:52;5.47;;;4.15;;
73938;SDS011;62291;47.554;8.504;2024-02-14T02:58:19;8.60;;;4.53;;
73938;SDS011;62291;47.554;8.504;2024-02-14T03:00:46;8.10;;;5.07;;
73938;SDS011;62291;47.554;8.504;2024-02-14T03:03:14;7.15;;;4.10;;
73938;SDS011;62291;47.554;8.504;2024-02-14T03:05:41;6.35;;;4.30;;
73938;SDS011;62291;47.554;8.504;2024-02-14T03:08:09;8.55;;;4.88;;
73938;SDS011;62291;47.554;8.504;2024-02-14T03:13:06;9.05;;;4.53;;
73938;SDS011;62291;47.554;8.504;2024-02-14T03:15:36;8.68;;;5.00;;
73938;SDS011;62291;47.554;8.504;2024-02-14T03:18:02;8.55;;;4.95;;
73938;SDS011;62291;47.554;8.504;2024-02-14T03:20:32;9.05;;;4.97;;
73938;SDS011;62291;47.554;8.504;2024-02-14T03:22:58;8.60;;;4.60;;
73938;SDS011;62291;47.554;8.504;2024-02-14T03:25:24;7.75;;;4.80;;
73938;SDS011;62291;47.554;8.504;2024-02-14T03:27:51;8.55;;;4.82;;
73938;SDS011;62291;47.554;8.504;2024-02-14T03:30:18;7.95;;;4.63;;
73938;SDS011;62291;47.554;8.504;2024-02-14T03:32:51;7.60;;;4.45;;
73938;SDS011;62291;47.554;8.504;2024-02-14T03:35:20;8.57;;;5.38;;
73938;SDS011;62291;47.554;8.504;2024-02-14T03:37:47;9.35;;;4.63;;
73938;SDS011;62291;47.554;8.504;2024-02-14T03:40:13;7.45;;;4.60;;
73938;SDS011;62291;47.554;8.504;2024-02-14T03:42:39;11.82;;;5.18;;
73938;SDS011;62291;47.554;8.504;2024-02-14T03:45:06;9.05;;;4.78;;
73938;SDS011;62291;47.554;8.504;2024-02-14T03:47:32;10.57;;;4.32;;
73938;SDS011;62291;47.554;8.504;2024-02-14T03:49:58;8.18;;;4.28;;
73938;SDS011;62291;47.554;8.504;2024-02-14T03:52:24;10.13;;;4.22;;
73938;SDS011;62291;47.554;8.504;2024-02-14T03:54:50;9.18;;;4.03;;
73938;SDS011;62291;47.554;8.504;2024-02-14T03:57:16;5.68;;;3.60;;
73938;SDS011;62291;47.554;8.504;2024-02-14T03:59:43;8.02;;;3.88;;
73938;SDS011;62291;47.554;8.504;2024-02-14T04:02:09;7.55;;;3.75;;
73938;SDS011;62291;47.554;8.504;2024-02-14T04:04:38;8.93;;;3.75;;
73938;SDS011;62291;47.554;8.504;2024-02-14T04:07:06;7.72;;;3.90;;
73938;SDS011;62291;47.554;8.504;2024-02-14T04:09:33;7.00;;;3.10;;
73938;SDS011;62291;47.554;8.504;2024-02-14T04:11:59;10.77;;;3.15;;
73938;SDS011;62291;47.554;8.504;2024-02-14T04:14:25;7.40;;;2.65;;
73938;SDS011;62291;47.554;8.504;2024-02-14T04:16:51;4.95;;;3.00;;
73938;SDS011;62291;47.554;8.504;2024-02-14T04:19:16;7.43;;;3.10;;
73938;SDS011;62291;47.554;8.504;2024-02-14T04:21:42;6.88;;;3.40;;
73938;SDS011;62291;47.554;8.504;2024-02-14T04:24:09;5.32;;;2.80;;
73938;SDS011;62291;47.554;8.504;2024-02-14T04:26:34;6.75;;;3.10;;
73938;SDS011;62291;47.554;8.504;2024-02-14T04:29:01;6.20;;;3.03;;
73938;SDS011;62291;47.554;8.504;2024-02-14T04:31:27;5.40;;;3.13;;
73938;SDS011;62291;47.554;8.504;2024-02-14T04:33:54;7.80;;;3.63;;
73938;SDS011;62291;47.554;8.504;2024-02-14T04:36:20;5.43;;;3.60;;
73938;SDS011;62291;47.554;8.504;2024-02-14T04:38:48;7.10;;;3.28;;
73938;SDS011;62291;47.554;8.504;2024-02-14T04:41:14;10.10;;;3.10;;
73938;SDS011;62291;47.554;8.504;2024-02-14T04:43:40;8.35;;;3.38;;
73938;SDS011;62291;47.554;8.504;2024-02-14T04:46:06;5.80;;;3.28;;
73938;SDS011;62291;47.554;8.504;2024-02-14T04:48:33;5.53;;;2.80;;
73938;SDS011;62291;47.554;8.504;2024-02-14T04:50:59;6.22;;;2.90;;
73938;SDS011;62291;47.554;8.504;2024-02-14T04:53:25;7.20;;;2.97;;
73938;SDS011;62291;47.554;8.504;2024-02-14T04:55:51;7.03;;;3.10;;
73938;SDS011;62291;47.554;8.504;2024-02-14T04:58:16;7.85;;;3.15;;
73938;SDS011;62291;47.554;8.504;2024-02-14T05:00:42;5.07;;;3.22;;
73938;SDS011;62291;47.554;8.504;2024-02-14T05:03:08;11.88;;;8.55;;
73938;SDS011;62291;47.554;8.504;2024-02-14T05:05:35;13.52;;;8.07;;
73938;SDS011;62291;47.554;8.504;2024-02-14T05:08:00;10.57;;;4.70;;
73938;SDS011;62291;47.554;8.504;2024-02-14T05:10:27;7.57;;;3.78;;
73938;SDS011;62291;47.554;8.504;2024-02-14T05:12:53;9.00;;;4.00;;
73938;SDS011;62291;47.554;8.504;2024-02-14T05:15:19;11.23;;;5.57;;
73938;SDS011;62291;47.554;8.504;2024-02-14T05:17:45;7.88;;;4.95;;
73938;SDS011;62291;47.554;8.504;2024-02-14T05:20:11;9.15;;;4.45;;
73938;SDS011;62291;47.554;8.504;2024-02-14T05:22:38;9.15;;;4.03;;
73938;SDS011;62291;47.554;8.504;2024-02-14T05:25:04;8.63;;;3.40;;
73938;SDS011;62291;47.554;8.504;2024-02-14T05:27:32;8.80;;;3.10;;
73938;SDS011;62291;47.554;8.504;2024-02-14T05:29:58;8.18;;;2.92;;
73938;SDS011;62291;47.554;8.504;2024-02-14T05:32:24;7.82;;;3.20;;
73938;SDS011;62291;47.554;8.504;2024-02-14T05:34:50;7.35;;;3.17;;
73938;SDS011;62291;47.554;8.504;2024-02-14T05:37:16;6.05;;;3.40;;
73938;SDS011;62291;47.554;8.504;2024-02-14T05:39:42;10.15;;;3.60;;
73938;SDS011;62291;47.554;8.504;2024-02-14T05:42:08;7.85;;;3.70;;
73938;SDS011;62291;47.554;8.504;2024-02-14T05:44:33;10.00;;;3.72;;
73938;SDS011;62291;47.554;8.504;2024-02-14T05:46:59;7.88;;;4.43;;
73938;SDS011;62291;47.554;8.504;2024-02-14T05:49:25;10.45;;;5.28;;
73938;SDS011;62291;47.554;8.504;2024-02-14T05:51:51;14.50;;;8.55;;
73938;SDS011;62291;47.554;8.504;2024-02-14T05:54:18;9.15;;;5.43;;
73938;SDS011;62291;47.554;8.504;2024-02-14T05:56:44;8.10;;;4.72;;
73938;SDS011;62291;47.554;8.504;2024-02-14T05:59:11;7.18;;;4.35;;
73938;SDS011;62291;47.554;8.504;2024-02-14T06:01:37;7.28;;;3.97;;
73938;SDS011;62291;47.554;8.504;2024-02-14T06:04:02;5.80;;;3.85;;
73938;SDS011;62291;47.554;8.504;2024-02-14T06:06:28;8.75;;;4.20;;
73938;SDS011;62291;47.554;8.504;2024-02-14T06:08:54;10.63;;;4.30;;
73938;SDS011;62291;47.554;8.504;2024-02-14T06:11:20;8.00;;;4.22;;
73938;SDS011;62291;47.554;8.504;2024-02-14T06:13:49;9.13;;;4.38;;
73938;SDS011;62291;47.554;8.504;2024-02-14T06:16:15;8.57;;;4.20;;
73938;SDS011;62291;47.554;8.504;2024-02-14T06:18:40;8.23;;;4.28;;
73938;SDS011;62291;47.554;8.504;2024-02-14T06:21:06;8.27;;;4.20;;
73938;SDS011;62291;47.554;8.504;2024-02-14T06:23:32;8.43;;;3.60;;
73938;SDS011;62291;47.554;8.504;2024-02-14T06:25:59;8.23;;;4.10;;
73938;SDS011;62291;47.554;8.504;2024-02-14T06:28:24;5.60;;;3.45;;
73938;SDS011;62291;47.554;8.504;2024-02-14T06:30:50;7.28;;;3.70;;
73938;SDS011;62291;47.554;8.504;2024-02-14T06:33:16;11.20;;;4.00;;
73938;SDS011;62291;47.554;8.504;2024-02-14T06:35:41;6.65;;;3.88;;
73938;SDS011;62291;47.554;8.504;2024-02-14T06:38:07;8.60;;;4.25;;
73938;SDS011;62291;47.554;8.504;2024-02-14T06:40:33;7.28;;;4.18;;
73938;SDS011;62291;47.554;8.504;2024-02-14T06:42:58;7.72;;;3.83;;
73938;SDS011;62291;47.554;8.504;2024-02-14T06:45:27;8.23;;;3.38;;
73938;SDS011;62291;47.554;8.504;2024-02-14T06:47:53;6.93;;;3.00;;
73938;SDS011;62291;47.554;8.504;2024-02-14T06:50:19;6.40;;;2.90;;
73938;SDS011;62291;47.554;8.504;2024-02-14T06:52:45;5.50;;;3.00;;
73938;SDS011;62291;47.554;8.504;2024-02-14T06:55:11;5.03;;;2.42;;
73938;SDS011;62291;47.554;8.504;2024-02-14T06:57:37;4.85;;;2.30;;
73938;SDS011;62291;47.554;8.504;2024-02-14T07:00:03;4.93;;;2.80;;
73938;SDS011;62291;47.554;8.504;2024-02-14T07:02:33;6.00;;;2.53;;
73938;SDS011;62291;47.554;8.504;2024-02-14T07:04:59;5.57;;;2.78;;
73938;SDS011;62291;47.554;8.504;2024-02-14T07:07:25;6.18;;;1.85;;
73938;SDS011;62291;47.554;8.504;2024-02-14T07:09:51;4.28;;;2.10;;
73938;SDS011;62291;47.554;8.504;2024-02-14T07:12:16;4.90;;;2.05;;
73938;SDS011;62291;47.554;8.504;2024-02-14T07:14:42;7.00;;;2.13;;
73938;SDS011;62291;47.554;8.504;2024-02-14T07:17:07;5.97;;;2.40;;
73938;SDS011;62291;47.554;8.504;2024-02-14T07:19:33;6.30;;;2.22;;
73938;SDS011;62291;47.554;8.504;2024-02-14T07:21:59;5.22;;;2.60;;
73938;SDS011;62291;47.554;8.504;2024-02-14T07:24:24;8.50;;;1.98;;
73938;SDS011;62291;47.554;8.504;2024-02-14T07:26:50;4.82;;;1.75;;
73938;SDS011;62291;47.554;8.504;2024-02-14T07:29:16;4.25;;;1.60;;
73938;SDS011;62291;47.554;8.504;2024-02-14T07:31:41;6.60;;;1.88;;
73938;SDS011;62291;47.554;8.504;2024-02-14T07:34:07;6.57;;;2.33;;
73938;SDS011;62291;47.554;8.504;2024-02-14T07:36:33;3.00;;;1.60;;
73938;SDS011;62291;47.554;8.504;2024-02-14T07:38:58;4.00;;;1.90;;
73938;SDS011;62291;47.554;8.504;2024-02-14T07:41:24;6.05;;;2.30;;
73938;SDS011;62291;47.554;8.504;2024-02-14T07:43:50;4.25;;;2.42;;
73938;SDS011;62291;47.554;8.504;2024-02-14T07:46:16;4.82;;;2.17;;
73938;SDS011;62291;47.554;8.504;2024-02-14T07:48:45;4.05;;;2.10;;
73938;SDS011;62291;47.554;8.504;2024-02-14T07:51:12;5.28;;;1.67;;
73938;SDS011;62291;47.554;8.504;2024-02-14T07:53:37;4.40;;;1.92;;
73938;SDS011;62291;47.554;8.504;2024-02-14T07:56:03;7.45;;;2.20;;
73938;SDS011;62291;47.554;8.504;2024-02-14T07:58:29;6.32;;;2.17;;
73938;SDS011;62291;47.554;8.504;2024-02-14T08:00:55;4.00;;;2.20;;
73938;SDS011;62291;47.554;8.504;2024-02-14T08:03:20;4.90;;;2.50;;
73938;SDS011;62291;47.554;8.504;2024-02-14T08:05:46;8.05;;;3.92;;
73938;SDS011;62291;47.554;8.504;2024-02-14T08:08:12;10.80;;;4.38;;
73938;SDS011;62291;47.554;8.504;2024-02-14T08:10:37;8.73;;;4.32;;
73938;SDS011;62291;47.554;8.504;2024-02-14T08:13:03;8.43;;;5.20;;
73938;SDS011;62291;47.554;8.504;2024-02-14T08:15:29;8.60;;;4.82;;
73938;SDS011;62291;47.554;8.504;2024-02-14T08:17:55;14.63;;;5.00;;
73938;SDS011;62291;47.554;8.504;2024-02-14T08:20:21;8.52;;;5.15;;
73938;SDS011;62291;47.554;8.504;2024-02-14T08:22:48;10.15;;;4.18;;
73938;SDS011;62291;47.554;8.504;2024-02-14T08:25:14;8.85;;;3.75;;
73938;SDS011;62291;47.554;8.504;2024-02-14T08:27:40;7.72;;;3.88;;
73938;SDS011;62291;47.554;8.504;2024-02-14T08:30:06;7.85;;;3.75;;
73938;SDS011;62291;47.554;8.504;2024-02-14T08:32:33;7.70;;;3.67;;
73938;SDS011;62291;47.554;8.504;2024-02-14T08:34:59;9.98;;;3.85;;
73938;SDS011;62291;47.554;8.504;2024-02-14T08:37:26;6.82;;;3.35;;
73938;SDS011;62291;47.554;8.504;2024-02-14T08:39:52;11.25;;;4.03;;
73938;SDS011;62291;47.554;8.504;2024-02-14T08:42:18;8.68;;;4.05;;
73938;SDS011;62291;47.554;8.504;2024-02-14T08:44:43;8.25;;;4.00;;
73938;SDS011;62291;47.554;8.504;2024-02-14T08:47:09;8.10;;;4.32;;
73938;SDS011;62291;47.554;8.504;2024-02-14T08:49:35;7.72;;;4.35;;
73938;SDS011;62291;47.554;8.504;2024-02-14T08:52:02;8.60;;;3.83;;
73938;SDS011;62291;47.554;8.504;2024-02-14T08:54:28;6.00;;;2.63;;
73938;SDS011;62291;47.554;8.504;2024-02-14T08:56:54;3.33;;;2.25;;
73938;SDS011;62291;47.554;8.504;2024-02-14T08:59:23;5.50;;;2.20;;
73938;SDS011;62291;47.554;8.504;2024-02-14T09:01:49;5.18;;;2.50;;
73938;SDS011;62291;47.554;8.504;2024-02-14T09:04:14;5.85;;;2.30;;
73938;SDS011;62291;47.554;8.504;2024-02-14T09:06:40;3.78;;;2.03;;
73938;SDS011;62291;47.554;8.504;2024-02-14T09:09:06;5.00;;;2.15;;
73938;SDS011;62291;47.554;8.504;2024-02-14T09:11:35;4.30;;;2.40;;
73938;SDS011;62291;47.554;8.504;2024-02-14T09:14:01;6.10;;;2.70;;
73938;SDS011;62291;47.554;8.504;2024-02-14T09:16:31;4.63;;;2.03;;
73938;SDS011;62291;47.554;8.504;2024-02-14T09:19:00;5.90;;;2.25;;
73938;SDS011;62291;47.554;8.504;2024-02-14T09:21:31;3.67;;;1.80;;
73938;SDS011;62291;47.554;8.504;2024-02-14T09:23:59;6.95;;;2.28;;
73938;SDS011;62291;47.554;8.504;2024-02-14T09:26:25;4.40;;;2.05;;
73938;SDS011;62291;47.554;8.504;2024-02-14T09:28:51;4.28;;;1.88;;
73938;SDS011;62291;47.554;8.504;2024-02-14T09:31:18;5.25;;;1.75;;
73938;SDS011;62291;47.554;8.504;2024-02-14T09:33:44;4.45;;;2.00;;
73938;SDS011;62291;47.554;8.504;2024-02-14T09:36:14;6.05;;;1.92;;
73938;SDS011;62291;47.554;8.504;2024-02-14T09:38:40;5.60;;;1.70;;
73938;SDS011;62291;47.554;8.504;2024-02-14T09:41:16;6.43;;;1.90;;
73938;SDS011;62291;47.554;8.504;2024-02-14T09:43:53;5.80;;;1.80;;
73938;SDS011;62291;47.554;8.504;2024-02-14T09:46:19;5.00;;;2.00;;
73938;SDS011;62291;47.554;8.504;2024-02-14T09:48:49;5.20;;;1.92;;
73938;SDS011;62291;47.554;8.504;2024-02-14T09:51:17;5.65;;;1.98;;
73938;SDS011;62291;47.554;8.504;2024-02-14T09:53:43;4.93;;;1.80;;
73938;SDS011;62291;47.554;8.504;2024-02-14T09:56:10;5.20;;;2.08;;
73938;SDS011;62291;47.554;8.504;2024-02-14T09:58:37;6.90;;;2.15;;
73938;SDS011;62291;47.554;8.504;2024-02-14T10:01:03;6.35;;;1.85;;
73938;SDS011;62291;47.554;8.504;2024-02-14T10:03:30;5.28;;;1.90;;
73938;SDS011;62291;47.554;8.504;2024-02-14T10:05:55;6.13;;;1.85;;
73938;SDS011;62291;47.554;8.504;2024-02-14T10:08:21;4.78;;;2.10;;
73938;SDS011;62291;47.554;8.504;2024-02-14T10:10:48;5.65;;;2.00;;
73938;SDS011;62291;47.554;8.504;2024-02-14T10:13:15;4.43;;;1.75;;
73938;SDS011;62291;47.554;8.504;2024-02-14T10:15:41;5.95;;;1.75;;
73938;SDS011;62291;47.554;8.504;2024-02-14T10:18:07;5.07;;;1.80;;
73938;SDS011;62291;47.554;8.504;2024-02-14T10:20:34;4.47;;;1.60;;
73938;SDS011;62291;47.554;8.504;2024-02-14T10:23:05;5.05;;;2.35;;
73938;SDS011;62291;47.554;8.504;2024-02-14T10:25:34;2.35;;;1.48;;
73938;SDS011;62291;47.554;8.504;2024-02-14T10:28:06;2.75;;;1.58;;
73938;SDS011;62291;47.554;8.504;2024-02-14T10:30:33;4.07;;;1.80;;
73938;SDS011;62291;47.554;8.504;2024-02-14T10:33:06;5.30;;;1.80;;
73938;SDS011;62291;47.554;8.504;2024-02-14T10:35:32;3.08;;;1.83;;
73938;SDS011;62291;47.554;8.504;2024-02-14T10:38:02;3.88;;;1.70;;
73938;SDS011;62291;47.554;8.504;2024-02-14T10:40:28;4.15;;;1.88;;
73938;SDS011;62291;47.554;8.504;2024-02-14T10:42:56;3.92;;;1.65;;
73938;SDS011;62291;47.554;8.504;2024-02-14T10:45:23;4.60;;;1.67;;
73938;SDS011;62291;47.554;8.504;2024-02-14T10:47:49;4.32;;;1.95;;
73938;SDS011;62291;47.554;8.504;2024-02-14T10:50:17;4.85;;;1.95;;
73938;SDS011;62291;47.554;8.504;2024-02-14T10:52:47;3.33;;;1.70;;
73938;SDS011;62291;47.554;8.504;2024-02-14T10:55:14;4.40;;;1.73;;
73938;SDS011;62291;47.554;8.504;2024-02-14T10:57:45;3.55;;;1.95;;
73938;SDS011;62291;47.554;8.504;2024-02-14T11:00:12;4.45;;;2.40;;
73938;SDS011;62291;47.554;8.504;2024-02-14T11:02:40;4.80;;;2.50;;
73938;SDS011;62291;47.554;8.504;2024-02-14T11:05:13;5.30;;;2.03;;
73938;SDS011;62291;47.554;8.504;2024-02-14T11:07:45;5.30;;;2.28;;
73938;SDS011;62291;47.554;8.504;2024-02-14T11:10:15;6.97;;;2.63;;
73938;SDS011;62291;47.554;8.504;2024-02-14T11:12:41;5.75;;;2.40;;
73938;SDS011;62291;47.554;8.504;2024-02-14T11:15:11;3.78;;;2.20;;
73938;SDS011;62291;47.554;8.504;2024-02-14T11:17:47;5.15;;;2.10;;
73938;SDS011;62291;47.554;8.504;2024-02-14T11:20:21;4.80;;;1.80;;
73938;SDS011;62291;47.554;8.504;2024-02-14T11:23:02;6.25;;;1.90;;
73938;SDS011;62291;47.554;8.504;2024-02-14T11:25:30;4.32;;;1.98;;
73938;SDS011;62291;47.554;8.504;2024-02-14T11:27:57;4.13;;;1.70;;
73938;SDS011;62291;47.554;8.504;2024-02-14T11:30:28;3.33;;;1.83;;
73938;SDS011;62291;47.554;8.504;2024-02-14T11:32:55;4.15;;;1.80;;
73938;SDS011;62291;47.554;8.504;2024-02-14T11:35:42;4.53;;;1.30;;
73938;SDS011;62291;47.554;8.504;2024-02-14T11:38:08;3.30;;;1.27;;
73938;SDS011;62291;47.554;8.504;2024-02-14T11:40:34;3.83;;;1.50;;
73938;SDS011;62291;47.554;8.504;2024-02-14T11:43:01;3.28;;;1.00;;
73938;SDS011;62291;47.554;8.504;2024-02-14T11:45:27;3.50;;;1.00;;
73938;SDS011;62291;47.554;8.504;2024-02-14T11:47:53;3.38;;;1.23;;
73938;SDS011;62291;47.554;8.504;2024-02-14T11:50:20;1.80;;;1.05;;
73938;SDS011;62291;47.554;8.504;2024-02-14T11:52:46;3.42;;;1.00;;
73938;SDS011;62291;47.554;8.504;2024-02-14T11:55:12;2.60;;;1.10;;
73938;SDS011;62291;47.554;8.504;2024-02-14T11:57:40;2.30;;;1.27;;
73938;SDS011;62291;47.554;8.504;2024-02-14T12:00:07;2.38;;;1.08;;
73938;SDS011;62291;47.554;8.504;2024-02-14T12:02:33;2.10;;;1.00;;
73938;SDS011;62291;47.554;8.504;2024-02-14T12:05:00;3.92;;;1.25;;
73938;SDS011;62291;47.554;8.504;2024-02-14T12:07:30;2.20;;;1.10;;
73938;SDS011;62291;47.554;8.504;2024-02-14T12:09:56;2.22;;;0.95;;
73938;SDS011;62291;47.554;8.504;2024-02-14T12:12:21;2.28;;;1.10;;
73938;SDS011;62291;47.554;8.504;2024-02-14T12:14:51;2.22;;;1.10;;
73938;SDS011;62291;47.554;8.504;2024-02-14T12:17:20;1.85;;;0.98;;
73938;SDS011;62291;47.554;8.504;2024-02-14T12:19:47;2.50;;;1.13;;
73938;SDS011;62291;47.554;8.504;2024-02-14T12:22:15;3.80;;;1.20;;
73938;SDS011;62291;47.554;8.504;2024-02-14T12:24:44;3.20;;;1.20;;
73938;SDS011;62291;47.554;8.504;2024-02-14T12:27:10;2.22;;;0.90;;
73938;SDS011;62291;47.554;8.504;2024-02-14T12:29:36;2.45;;;0.90;;
73938;SDS011;62291;47.554;8.504;2024-02-14T12:32:03;2.13;;;1.20;;
73938;SDS011;62291;47.554;8.504;2024-02-14T12:34:30;1.60;;;1.00;;
73938;SDS011;62291;47.554;8.504;2024-02-14T12:36:57;2.70;;;1.00;;
73938;SDS011;62291;47.554;8.504;2024-02-14T12:39:23;4.45;;;1.25;;
73938;SDS011;62291;47.554;8.504;2024-02-14T12:41:51;2.88;;;1.13;;
73938;SDS011;62291;47.554;8.504;2024-02-14T12:44:17;2.95;;;1.17;;
73938;SDS011;62291;47.554;8.504;2024-02-14T12:46:43;2.45;;;0.90;;
73938;SDS011;62291;47.554;8.504;2024-02-14T12:49:09;2.10;;;1.02;;
73938;SDS011;62291;47.554;8.504;2024-02-14T12:51:36;4.88;;;1.20;;
73938;SDS011;62291;47.554;8.504;2024-02-14T12:54:03;2.25;;;1.15;;
73938;SDS011;62291;47.554;8.504;2024-02-14T12:56:30;4.35;;;1.20;;
73938;SDS011;62291;47.554;8.504;2024-02-14T12:58:56;2.83;;;1.13;;
73938;SDS011;62291;47.554;8.504;2024-02-14T13:01:24;4.75;;;0.90;;
73938;SDS011;62291;47.554;8.504;2024-02-14T13:03:50;3.97;;;1.30;;
73938;SDS011;62291;47.554;8.504;2024-02-14T13:06:15;2.45;;;0.98;;
73938;SDS011;62291;47.554;8.504;2024-02-14T13:08:41;2.05;;;1.15;;
73938;SDS011;62291;47.554;8.504;2024-02-14T13:11:07;1.45;;;0.88;;
73938;SDS011;62291;47.554;8.504;2024-02-14T13:13:36;3.05;;;1.17;;
73938;SDS011;62291;47.554;8.504;2024-02-14T13:16:02;2.30;;;1.08;;
73938;SDS011;62291;47.554;8.504;2024-02-14T13:18:27;3.95;;;1.00;;
73938;SDS011;62291;47.554;8.504;2024-02-14T13:20:53;1.63;;;1.02;;
73938;SDS011;62291;47.554;8.504;2024-02-14T13:23:24;3.25;;;1.33;;
73938;SDS011;62291;47.554;8.504;2024-02-14T13:25:51;2.40;;;1.10;;
73938;SDS011;62291;47.554;8.504;2024-02-14T13:28:16;3.53;;;1.10;;
73938;SDS011;62291;47.554;8.504;2024-02-14T13:30:43;1.98;;;0.80;;
73938;SDS011;62291;47.554;8.504;2024-02-14T13:33:08;1.83;;;0.90;;
73938;SDS011;62291;47.554;8.504;2024-02-14T13:35:36;2.20;;;1.10;;
73938;SDS011;62291;47.554;8.504;2024-02-14T13:38:04;2.55;;;1.10;;
73938;SDS011;62291;47.554;8.504;2024-02-14T13:40:34;2.75;;;1.10;;
73938;SDS011;62291;47.554;8.504;2024-02-14T13:43:00;1.60;;;0.70;;
73938;SDS011;62291;47.554;8.504;2024-02-14T13:45:26;1.52;;;0.82;;
73938;SDS011;62291;47.554;8.504;2024-02-14T13:48:02;3.20;;;0.90;;
73938;SDS011;62291;47.554;8.504;2024-02-14T13:50:32;2.22;;;0.95;;
73938;SDS011;62291;47.554;8.504;2024-02-14T13:52:58;2.63;;;1.10;;
73938;SDS011;62291;47.554;8.504;2024-02-14T13:55:24;2.53;;;1.20;;
73938;SDS011;62291;47.554;8.504;2024-02-14T13:57:50;3.38;;;1.25;;
73938;SDS011;62291;47.554;8.504;2024-02-14T14:00:16;2.88;;;0.90;;
73938;SDS011;62291;47.554;8.504;2024-02-14T14:02:41;5.07;;;1.20;;
73938;SDS011;62291;47.554;8.504;2024-02-14T14:05:08;3.42;;;0.90;;
73938;SDS011;62291;47.554;8.504;2024-02-14T14:07:38;1.55;;;0.73;;
73938;SDS011;62291;47.554;8.504;2024-02-14T14:10:13;2.15;;;0.80;;
73938;SDS011;62291;47.554;8.504;2024-02-14T14:12:39;2.30;;;1.23;;
73938;SDS011;62291;47.554;8.504;2024-02-14T14:15:04;3.83;;;1.05;;
73938;SDS011;62291;47.554;8.504;2024-02-14T14:17:31;2.65;;;1.10;;
73938;SDS011;62291;47.554;8.504;2024-02-14T14:19:56;1.65;;;1.00;;
73938;SDS011;62291;47.554;8.504;2024-02-14T14:22:22;1.88;;;0.98;;
73938;SDS011;62291;47.554;8.504;2024-02-14T14:24:48;2.33;;;1.27;;
73938;SDS011;62291;47.554;8.504;2024-02-14T14:27:15;2.67;;;1.30;;
73938;SDS011;62291;47.554;8.504;2024-02-14T14:29:40;2.55;;;1.42;;
73938;SDS011;62291;47.554;8.504;2024-02-14T14:32:07;5.38;;;1.30;;
73938;SDS011;62291;47.554;8.504;2024-02-14T14:34:33;5.05;;;1.90;;
73938;SDS011;62291;47.554;8.504;2024-02-14T14:36:59;3.47;;;1.30;;
73938;SDS011;62291;47.554;8.504;2024-02-14T14:39:24;2.50;;;1.20;;
73938;SDS011;62291;47.554;8.504;2024-02-14T14:41:51;3.83;;;1.50;;
73938;SDS011;62291;47.554;8.504;2024-02-14T14:44:18;4.38;;;1.40;;
73938;SDS011;62291;47.554;8.504;2024-02-14T14:46:44;10.93;;;5.50;;